Mount Olive, Ohio
Current Conditions -  °F | °C
As of 12:53 PM on Thursday 29 Jan 2015 (Local Time) from KLUK Reporting Station
Overcast Overcast  
Wind Chill: 44°   Ceiling: 3700
Heat Index: 49°   Visibility: 10mi
Dew Point: 37°   Wind: 13mph
Humidity: 64%   Direction: 220°SW
Pressure: 29.84"   Gusts: NA
Location:  38.9479°N, 84.0585°W
Report Text: KLUK 291753Z 22011KT 10SM OVC037 09/03 A2984 RMK AO2 SLP106 60000 T00940028 10094 20011 56014
Loading
Personal Weather Stations






























Interactive Weather Map New forecast layout! Learn more

10-Day Weather Forecast

Advertisements
Track Severe Weather on mobile